Latest Weather Observations for Cabramurra

IDN60901

Issued at 8:35 pm EDT Thursday 27 November 2014 (issued every 10 minutes, with the page automatically refreshed every 10 minutes)

About weather observations | Map of Canberra area stations | Latest observations for Canberra area | Other Formats
Station Details ID: 072161 Name: CABRAMURRA SMHEA AWS Lat: -35.94 Lon: 148.38 Height: 1482.4 m
Data from the previous 72 hours. | See also: Recent months at Cabramurra
Date/Time
EDT
Tmp

°C
App
Tmp
°C
Dew
Point
°C
Rel
Hum
%
Delta-T

°C
Wind Press
QNH
hPa
Press
MSL
hPa
Rain
since
9 am
mm
Dir
 
Spd
km/h
Gust
km/h
Spd
kts
Gust
kts
27/08:30pm 11.4 3.7 7.3 76 2.1 E 37 46 20 25 - - 0.0
27/08:00pm 13.4 6.2 -1.7 35 6.6 ESE 26 35 14 19 - - 0.0
27/07:30pm 14.2 7.1 -1.4 34 6.9 ESE 26 41 14 22 - - 0.0
27/07:00pm 14.9 9.2 0.4 37 6.7 ESE 20 28 11 15 - - 0.0
27/06:30pm 14.9 9.6 1.8 41 6.3 E 19 24 10 13 - - 0.0
27/06:00pm 15.4 10.4 1.5 39 6.6 E 17 24 9 13 - - 0.0
27/05:30pm 15.6 12.3 4.6 48 5.6 ESE 11 15 6 8 - - 0.0
27/05:00pm 15.7 11.8 5.3 50 5.4 E 15 20 8 11 - - 0.0
27/04:30pm 16.2 14.6 7.9 58 4.5 SSW 6 9 3 5 - - 0.0
27/04:00pm 16.4 13.3 7.3 55 4.9 W 13 19 7 10 - - 0.0
27/03:30pm 15.6 13.2 6.9 56 4.6 WSW 9 15 5 8 - - 0.0
27/03:00pm 15.3 12.1 6.8 57 4.5 WNW 13 20 7 11 - - 0.0
27/02:30pm 15.8 11.9 7.0 56 4.7 W 17 26 9 14 - - 0.0
27/02:00pm 16.6 13.1 8.6 59 4.4 W 17 24 9 13 - - 0.0
27/01:30pm 15.3 10.9 6.6 56 4.6 WNW 19 26 10 14 - - 0.0
27/01:00pm 15.6 11.8 7.6 59 4.3 WNW 17 22 9 12 - - 0.0
27/12:30pm 15.1 11.6 8.6 65 3.6 W 17 20 9 11 - - 0.0
27/12:00pm 14.7 10.9 7.7 63 3.8 W 17 26 9 14 - - 0.0
27/11:30am 14.5 11.2 8.2 66 3.4 W 15 19 8 10 - - 0.0
27/11:00am 13.7 10.7 7.9 68 3.1 W 13 22 7 12 - - 0.0
27/10:30am 13.2 10.2 7.9 70 2.8 NW 13 17 7 9 - - 0.0
27/10:00am 12.7 10.6 6.7 67 3.1 W 7 11 4 6 - - 0.0
27/09:30am 11.9 9.9 7.2 73 2.5 WNW 7 13 4 7 - - 0.0
27/09:00am 10.6 8.6 7.1 79 1.8 WNW 7 7 4 4 - - 0.0
27/08:30am 11.3 9.3 7.0 75 2.2 ENE 7 9 4 5 - - 0.0
27/08:00am 9.7 6.6 7.1 84 1.3 E 13 17 7 9 - - 0.0
27/07:30am 8.5 4.6 7.1 91 0.7 E 17 26 9 14 - - 0.0
27/07:00am 7.9 4.0 7.3 96 0.3 E 17 28 9 15 - - 0.0
27/06:30am 7.2 3.3 7.1 99 0.1 E 17 24 9 13 - - 0.0
27/06:00am 6.8 2.4 6.7 99 0.1 E 19 24 10 13 - - 0.0
27/05:30am 7.0 2.7 6.9 99 0.1 E 19 24 10 13 - - 0.0
27/05:00am 7.0 2.5 6.9 99 0.1 E 20 28 11 15 - - 0.0
27/04:30am 7.0 2.1 6.9 99 0.1 E 22 30 12 16 - - 0.0
27/04:00am 7.1 1.8 7.0 99 0.1 E 24 32 13 17 - - 0.0
27/03:30am 7.4 2.6 7.3 99 0.1 E 22 28 12 15 - - 0.0
27/03:00am 7.1 2.2 7.0 99 0.1 E 22 28 12 15 - - 0.0
27/02:30am 7.4 2.6 7.3 99 0.1 E 22 32 12 17 - - 0.0
27/02:00am 7.6 2.8 7.5 99 0.1 ESE 22 32 12 17 - - 0.0
27/01:30am 7.8 2.7 7.7 99 0.1 ESE 24 33 13 18 - - 0.0
27/01:00am 8.0 2.6 7.9 99 0.1 ESE 26 35 14 19 - - 0.0
27/12:30am 8.2 2.4 8.1 99 0.1 E 28 33 15 18 - - 0.0
27/12:00am 8.4 3.5 8.3 99 0.1 E 24 32 13 17 - - 0.0
 
Date/Time
EDT
Tmp

°C
App
Tmp
°C
Dew
Point
°C
Rel
Hum
%
Delta-T

°C
Wind Press
QNH
hPa
Press
MSL
hPa
Rain
since
9 am
mm
Dir
 
Spd
km/h
Gust
km/h
Spd
kts
Gust
kts
26/11:30pm 8.6 3.3 8.3 98 0.2 E 26 35 14 19 - - 0.0
26/11:00pm 8.8 3.5 8.5 98 0.2 ESE 26 33 14 18 - - 0.0
26/10:30pm 9.1 3.8 8.3 95 0.4 E 26 37 14 20 - - 0.0
26/10:00pm 9.4 4.8 8.0 91 0.7 ESE 22 33 12 18 - - 0.0
26/09:30pm 9.9 5.6 8.0 88 1.0 ESE 20 32 11 17 - - 0.0
26/09:00pm 10.7 6.9 7.6 81 1.6 ESE 17 22 9 12 - - 0.0
26/08:30pm 11.2 8.3 4.4 63 3.3 S 9 13 5 7 - - 0.0
26/08:00pm 11.3 8.3 4.1 61 3.5 SSW 9 15 5 8 - - 0.0
26/07:30pm 13.2 9.9 4.4 55 4.4 WSW 11 17 6 9 - - 0.0
26/07:00pm 13.8 10.1 4.7 54 4.6 W 13 19 7 10 - - 0.0
26/06:30pm 14.1 10.1 4.7 53 4.7 WSW 15 20 8 11 - - 0.0
26/06:00pm 14.7 11.2 5.5 54 4.7 WNW 13 20 7 11 - - 0.0
26/05:30pm 14.9 10.9 5.1 52 5.0 WSW 15 19 8 10 - - 0.0
26/05:00pm 14.4 9.7 3.2 47 5.5 SW 17 22 9 12 - - 0.0
26/04:30pm 14.8 10.3 4.2 49 5.3 WSW 17 24 9 13 - - 0.0
26/04:00pm 14.7 10.6 4.4 50 5.2 W 15 24 8 13 - - 0.0
26/03:30pm 14.2 9.9 5.3 55 4.5 W 17 32 9 17 - - 0.0
26/03:00pm 13.8 8.7 4.1 52 4.8 W 20 30 11 16 - - 0.0
26/02:30pm 13.8 9.6 5.7 58 4.2 W 17 22 9 12 - - 0.0
26/02:00pm 13.2 9.2 4.9 57 4.2 W 15 24 8 13 - - 0.0
26/01:30pm 12.9 8.1 5.8 62 3.6 W 20 30 11 16 - - 0.0
26/01:00pm 12.8 8.4 5.0 59 3.9 WNW 17 26 9 14 - - 0.0
26/12:30pm 11.7 6.7 3.5 57 4.0 WNW 19 24 10 13 - - 0.0
26/12:00pm 11.4 6.3 4.2 61 3.5 WNW 20 28 11 15 - - 0.0
26/11:30am 10.9 5.9 3.7 61 3.5 W 19 28 10 15 - - 0.0
26/11:00am 10.5 5.5 3.5 62 3.4 W 19 26 10 14 - - 0.0
26/10:30am 10.4 6.6 4.1 65 3.1 W 13 20 7 11 - - 0.0
26/10:00am 9.8 5.3 4.0 67 2.8 WSW 17 33 9 18 - - 0.0
26/09:30am 8.9 4.0 2.3 63 3.0 W 17 28 9 15 - - 0.0
26/09:00am 8.7 3.8 2.3 64 2.9 W 17 26 9 14 - - 0.0
26/08:30am 8.4 4.3 2.0 64 2.9 WSW 13 20 7 11 - - 0.0
26/08:00am 7.8 4.0 1.9 66 2.7 W 11 15 6 8 - - 0.0
26/07:30am 7.0 4.1 1.7 69 2.4 WNW 6 7 3 4 - - 0.0
26/07:00am 6.8 3.3 1.3 68 2.4 WSW 9 11 5 6 - - 0.0
26/06:30am 5.4 1.8 0.8 72 2.0 WSW 9 11 5 6 - - 0.0
26/06:00am 4.6 0.6 0.6 75 1.7 SSW 11 11 6 6 - - 0.0
26/05:30am 5.2 1.3 1.0 74 1.8 S 11 13 6 7 - - 0.0
26/05:00am 5.4 2.5 1.3 75 1.8 SSE 6 7 3 4 - - 0.0
26/04:30am 5.1 2.2 1.2 76 1.7 SW 6 7 3 4 - - 0.0
26/04:00am 4.8 1.2 0.9 76 1.7 SSW 9 11 5 6 - - 0.0
26/03:30am 5.2 1.3 1.1 75 1.8 S 11 15 6 8 - - 0.0
26/03:00am 5.3 1.0 1.2 75 1.8 SSW 13 15 7 8 - - 0.0
26/02:30am 5.4 1.2 1.5 76 1.7 S 13 17 7 9 - - 0.0
26/02:00am 5.2 1.0 1.7 78 1.5 S 13 15 7 8 - - 0.0
26/01:30am 5.5 0.9 1.8 77 1.6 SSW 15 19 8 10 - - 0.0
26/01:00am 5.7 1.2 2.4 79 1.5 SSW 15 19 8 10 - - 0.0
26/12:30am 5.6 1.8 1.9 77 1.6 SW 11 13 6 7 - - 0.0
26/12:00am 5.9 1.8 2.2 77 1.7 SW 13 17 7 9 - - 0.0
 
Date/Time
EDT
Tmp

°C
App
Tmp
°C
Dew
Point
°C
Rel
Hum
%
Delta-T

°C
Wind Press
QNH
hPa
Press
MSL
hPa
Rain
since
9 am
mm
Dir
 
Spd
km/h
Gust
km/h
Spd
kts
Gust
kts
25/11:30pm 5.7 1.6 2.2 78 1.6 SSW 13 15 7 8 - - 0.0
25/11:00pm 6.4 2.3 2.5 76 1.8 SSW 13 15 7 8 - - 0.0
25/10:30pm 6.3 2.6 2.2 75 1.8 SSW 11 15 6 8 - - 0.0
25/10:00pm 6.6 2.9 2.1 73 2.0 WSW 11 17 6 9 - - 0.0
25/09:30pm 6.9 2.4 2.0 71 2.2 SW 15 20 8 11 - - 0.0
25/09:00pm 7.4 2.5 2.3 70 2.3 SW 17 22 9 12 - - 0.0
25/08:30pm 7.6 3.8 1.9 67 2.6 WSW 11 17 6 9 - - 0.0
25/08:00pm 8.4 4.7 2.2 65 2.8 W 11 15 6 8 - - 0.0
25/07:30pm 9.9 5.5 2.5 60 3.5 W 15 22 8 12 - - 0.0
25/07:00pm 10.8 6.1 3.1 59 3.7 W 17 26 9 14 - - 0.0
25/06:30pm 11.3 5.9 2.6 55 4.1 WNW 20 32 11 17 - - 0.0
25/06:00pm 11.9 7.2 3.4 56 4.1 W 17 26 9 14 - - 0.0
25/05:30pm 11.3 5.9 1.3 50 4.6 WNW 19 32 10 17 - - 0.0
25/05:00pm 11.8 6.4 2.3 52 4.5 W 20 30 11 16 - - 0.0
25/04:30pm 11.6 6.1 2.1 52 4.5 WNW 20 28 11 15 - - 0.0
25/04:00pm 11.7 6.3 2.2 52 4.5 W 20 30 11 16 - - 0.0
25/03:30pm 12.3 8.5 5.7 64 3.4 WNW 15 30 8 16 - - 0.0
25/03:00pm 11.2 5.3 2.0 53 4.3 W 22 35 12 19 - - 0.0
25/02:30pm 10.9 6.0 2.2 55 4.1 WNW 17 30 9 16 - - 0.0
25/02:00pm 10.7 5.5 2.3 56 3.9 WNW 19 26 10 14 - - 0.0
25/01:30pm 10.1 4.6 2.0 57 3.7 W 20 33 11 18 - - 0.0
25/01:00pm 9.3 3.3 1.0 56 3.7 WNW 22 30 12 16 - - 0.0
25/12:30pm 8.7 3.5 2.3 64 2.9 WNW 19 28 10 15 - - 0.0
25/12:00pm 8.8 3.8 3.8 71 2.4 WNW 19 30 10 16 - - 0.0
25/11:30am 8.2 3.1 3.1 70 2.4 W 19 26 10 14 - - 0.0
25/11:00am 7.3 1.3 1.0 64 2.8 W 22 35 12 19 - - 0.0
25/10:30am 6.5 0.6 1.6 71 2.2 W 22 39 12 21 - - 0.0
25/10:00am 5.7 0.0 0.7 70 2.2 W 20 35 11 19 - - 0.0
25/09:30am 5.2 -0.8 1.3 76 1.7 WNW 22 33 12 18 - - 0.0
25/09:00am 5.0 0.4 1.8 80 1.4 W 15 22 8 12 - - 38.6
25/08:30am 4.3 -1.0 2.0 85 1.0 W 19 32 10 17 - - 38.6
25/08:00am 3.4 -1.9 3.1 98 0.1 W 20 35 11 19 - - 38.6
25/07:30am 3.3 -2.7 3.2 99 0.0 W 24 41 13 22 - - 38.6
25/07:00am 3.3 -3.1 3.2 99 0.0 W 26 39 14 21 - - 38.6
25/06:30am 3.3 -2.7 3.2 99 0.0 W 24 35 13 19 - - 38.6
25/06:00am 3.9 -2.8 3.8 99 0.0 W 28 41 15 22 - - 38.6
25/05:30am 4.5 -1.4 4.1 97 0.2 W 24 39 13 21 - - 38.6
25/05:00am 6.0 -1.0 5.9 99 0.0 W 32 43 17 23 - - 38.6
25/04:30am 6.4 -1.1 6.3 99 0.0 W 35 56 19 30 - - 38.6
25/04:00am 7.3 0.4 7.3 100 0.0 W 33 56 18 30 - - 38.6
25/03:30am 7.9 1.1 7.9 100 0.0 WSW 33 54 18 29 - - 38.6
25/03:03am 8.6 2.2 8.6 100 0.0 WSW 32 52 17 28 - - 38.6
25/03:00am 8.7 2.1 8.7 100 0.0 W 33 50 18 27 - - 38.6
25/02:30am 9.2 1.6 9.2 100 0.0 W 39 63 21 34 - - 38.6
25/02:00am 10.5 3.3 10.5 100 0.0 W 39 63 21 34 - - 38.6
25/01:51am 10.7 3.9 10.7 100 0.0 W 37 57 20 31 - - 38.6
25/01:47am 10.8 2.9 10.8 100 0.0 W 43 54 23 29 - - 38.4
25/01:32am 11.1 5.2 11.1 100 0.0 WNW 33 54 18 29 - - 38.0
25/01:30am 11.1 5.4 11.1 100 0.0 WNW 32 46 17 25 - - 37.8
25/01:09am 11.0 6.0 11.0 100 0.0 WNW 28 48 15 26 - - 37.8
25/01:00am 10.9 6.3 10.9 100 0.0 WNW 26 46 14 25 - - 37.8
25/12:34am 10.8 5.4 10.8 100 0.0 NW 30 50 16 27 - - 37.8
25/12:30am 10.8 5.4 10.8 100 0.0 NW 30 43 16 23 - - 37.8
25/12:00am 10.5 5.8 10.5 100 0.0 NW 26 41 14 22 - - 37.8
 
Date/Time
EDT
Tmp

°C
App
Tmp
°C
Dew
Point
°C
Rel
Hum
%
Delta-T

°C
Wind Press
QNH
hPa
Press
MSL
hPa
Rain
since
9 am
mm
Dir
 
Spd
km/h
Gust
km/h
Spd
kts
Gust
kts
24/11:30pm 10.3 6.6 10.3 100 0.0 N 20 28 11 15 - - 37.8
24/11:00pm 10.4 6.7 10.2 99 0.1 NW 20 33 11 18 - - 37.8
24/10:30pm 10.6 8.7 10.4 99 0.1 W 11 17 6 9 - - 37.8
24/10:02pm 10.5 5.0 10.5 100 0.0 W 30 48 16 26 - - 36.6
24/10:00pm 10.5 4.6 10.5 100 0.0 W 32 48 17 26 - - 36.2
24/09:48pm 10.6 4.2 10.6 100 0.0 W 35 67 19 36 - - 34.8
24/09:46pm 10.6 4.7 10.6 100 0.0 WNW 32 43 17 23 - - 34.8
24/09:43pm 10.6 0.2 10.6 100 0.0 W 56 76 30 41 - - 34.6
24/09:39pm 10.7 4.9 10.7 100 0.0 WSW 32 56 17 30 - - 34.2
24/09:32pm 10.6 3.0 10.6 100 0.0 WNW 41 72 22 39 - - 33.2
24/09:30pm 10.8 3.7 10.8 100 0.0 NW 39 52 21 28 - - 32.8
24/09:26pm 10.7 2.6 10.7 100 0.0 W 44 63 24 34 - - 31.6
24/09:25pm 10.7 2.2 10.7 100 0.0 W 46 61 25 33 - - 31.0
24/09:00pm 10.5 6.9 10.5 100 0.0 WSW 20 32 11 17 - - 26.6

Latest Capital City Observations: Canberra | Sydney | Melbourne | Brisbane | Adelaide | Perth | Hobart | Darwin

Other Formats:

Comma delimited format used in spreadsheet applications
http://www.bom.gov.au/fwo/IDN60903/IDN60903.95916.axf

JavaScript Object Notation format (JSON) in row-major order
http://www.bom.gov.au/fwo/IDN60903/IDN60903.95916.json